createdAt,value
2019-04-27T00:01:33.619Z,100812.75
2019-04-27T00:04:21.027Z,100812.98
2019-04-27T00:06:51.352Z,100812.95
2019-04-27T00:09:43.226Z,100816.94
2019-04-27T00:12:10.463Z,100812.75
2019-04-27T00:14:40.115Z,100811.50
2019-04-27T00:17:43.551Z,100811.62
2019-04-27T00:20:24.723Z,100813.42
2019-04-27T00:23:19.882Z,100823.86
2019-04-27T00:25:49.738Z,100817.34
2019-04-27T00:28:19.269Z,100813.96
2019-04-27T00:30:48.852Z,100819.17
2019-04-27T00:33:18.633Z,100822.33
2019-04-27T00:35:54.002Z,100816.09
2019-04-27T00:38:29.113Z,100807.73
2019-04-27T00:41:03.252Z,100808.61
2019-04-27T00:43:32.887Z,100803.99
2019-04-27T00:46:04.034Z,100797.15
2019-04-27T00:48:37.576Z,100793.06
2019-04-27T00:51:07.317Z,100791.73
2019-04-27T00:53:39.328Z,100786.43
2019-04-27T00:56:26.506Z,100787.34
2019-04-27T00:59:13.787Z,100796.15
2019-04-27T01:01:50.700Z,100804.16
2019-04-27T01:04:25.299Z,100809.47
2019-04-27T01:06:57.040Z,100809.45
2019-04-27T01:09:27.115Z,100809.43
2019-04-27T01:11:56.921Z,100813.86
2019-04-27T01:14:26.807Z,100824.43
2019-04-27T01:16:56.405Z,100723.50
2019-04-27T01:19:26.066Z,100836.73
2019-04-27T01:21:55.847Z,100839.34
2019-04-27T01:24:25.964Z,100838.01
2019-04-27T01:27:13.048Z,100839.41
2019-04-27T01:29:42.923Z,100844.78
2019-04-27T01:32:14.388Z,100839.28
2019-04-27T01:34:44.190Z,100831.95
2019-04-27T01:37:13.651Z,100844.63
2019-04-27T01:39:43.189Z,100845.47
2019-04-27T01:42:13.041Z,100830.97
2019-04-27T01:44:42.856Z,100829.22
2019-04-27T01:47:12.436Z,100820.82
2019-04-27T01:49:41.930Z,100811.53
2019-04-27T01:52:12.019Z,100813.44
2019-04-27T01:54:41.668Z,100796.75
2019-04-27T01:57:11.623Z,100803.06
2019-04-27T01:59:41.313Z,100793.45
2019-04-27T02:02:26.136Z,100794.35
2019-04-27T02:05:13.220Z,100785.64
2019-04-27T02:07:43.973Z,100792.27
2019-04-27T02:10:14.198Z,100786.53
2019-04-27T02:12:44.286Z,100789.80
2019-04-27T02:15:14.162Z,100777.24
2019-04-27T02:17:43.787Z,100783.95
2019-04-27T02:20:13.669Z,100779.14
2019-04-27T02:22:43.686Z,100777.88
2019-04-27T02:25:13.559Z,100776.56
2019-04-27T02:27:49.091Z,100774.41
2019-04-27T02:30:42.089Z,100775.73
2019-04-27T02:33:34.272Z,100765.63
2019-04-27T02:36:03.869Z,100761.78
2019-04-27T02:38:33.457Z,100760.45
2019-04-27T02:41:04.759Z,100756.08
2019-04-27T02:43:42.974Z,100753.06
2019-04-27T02:46:12.649Z,100746.44
2019-04-27T02:48:55.993Z,100749.59
2019-04-27T02:51:16.416Z,100750.80
2019-04-27T02:54:00.140Z,100748.69
2019-04-27T02:56:30.774Z,100745.11
2019-04-27T02:59:00.570Z,100741.61
2019-04-27T03:01:32.962Z,100749.66
2019-04-27T03:04:02.712Z,100744.14
2019-04-27T03:06:32.333Z,100745.02
2019-04-27T03:09:02.034Z,100738.86
2019-04-27T03:11:32.166Z,100737.20
2019-04-27T03:14:32.573Z,100740.23
2019-04-27T03:17:16.580Z,100688.39
2019-04-27T03:19:54.117Z,100731.02
2019-04-27T03:22:44.915Z,100733.53
2019-04-27T03:25:34.899Z,100733.53
2019-04-27T03:28:15.086Z,100730.70
2019-04-27T03:30:44.917Z,100742.31
2019-04-27T03:33:14.443Z,100737.01
2019-04-27T03:35:44.313Z,100738.84
2019-04-27T03:38:14.025Z,100736.19
2019-04-27T03:40:44.018Z,100736.75
2019-04-27T03:43:22.987Z,100735.37
2019-04-27T03:45:52.808Z,100737.51
2019-04-27T03:48:22.525Z,100736.08
2019-04-27T03:51:10.149Z,100733.93
2019-04-27T03:53:51.048Z,100737.77
2019-04-27T03:56:25.735Z,100735.11
2019-04-27T03:58:59.890Z,100736.84
2019-04-27T04:01:30.279Z,100746.13
2019-04-27T04:04:00.144Z,100741.81
2019-04-27T04:06:29.831Z,100737.01
2019-04-27T04:09:00.381Z,100737.31
2019-04-27T04:11:39.722Z,100730.58
2019-04-27T04:14:13.571Z,100729.63
2019-04-27T04:17:01.784Z,100729.48
2019-04-27T04:19:31.613Z,100728.05
2019-04-27T04:22:00.585Z,100723.75
2019-04-27T04:24:31.803Z,100724.63
2019-04-27T04:27:01.730Z,100727.22
2019-04-27T04:29:31.222Z,100723.57
2019-04-27T04:32:00.798Z,100716.84
2019-04-27T04:34:30.720Z,100721.58
2019-04-27T04:37:00.798Z,100713.88
2019-04-27T04:39:30.792Z,100709.08
2019-04-27T04:42:19.859Z,100715.21
2019-04-27T04:45:17.072Z,100705.45
2019-04-27T04:48:01.532Z,100702.75
2019-04-27T04:50:31.201Z,100701.70
2019-04-27T04:53:00.813Z,100697.38
2019-04-27T04:55:30.882Z,100692.83
2019-04-27T04:58:00.578Z,100694.86
2019-04-27T05:00:30.875Z,100699.40
2019-04-27T05:03:00.890Z,100702.75
2019-04-27T05:05:30.636Z,100708.69
2019-04-27T05:08:00.890Z,100598.44
2019-04-27T05:10:31.284Z,100715.12
2019-04-27T05:13:00.931Z,100607.31
2019-04-27T05:15:30.823Z,100720.62
2019-04-27T05:18:00.502Z,100733.14
2019-04-27T05:20:45.367Z,100735.22
2019-04-27T05:23:14.963Z,100728.59
2019-04-27T05:25:44.494Z,100726.62
2019-04-27T05:28:14.230Z,100728.59
2019-04-27T05:30:43.904Z,100725.67
2019-04-27T05:33:13.649Z,100727.17
2019-04-27T05:35:43.405Z,100720.03
2019-04-27T05:38:13.618Z,100721.87
2019-04-27T05:40:43.521Z,100724.59
2019-04-27T05:43:14.857Z,100716.13
2019-04-27T05:46:51.306Z,100714.30
2019-04-27T05:49:44.441Z,100703.36
2019-04-27T05:52:29.487Z,100696.48
2019-04-27T05:55:00.221Z,100692.83
2019-04-27T05:57:31.347Z,100687.57
2019-04-27T06:00:02.490Z,100685.44
2019-04-27T06:02:32.705Z,100686.95
2019-04-27T06:05:02.249Z,100691.26
2019-04-27T06:07:32.167Z,100691.69
2019-04-27T06:10:01.864Z,100683.38
2019-04-27T06:12:31.971Z,100683.88
2019-04-27T06:15:01.953Z,100689.48
2019-04-27T06:17:31.880Z,100684.97
2019-04-27T06:20:02.018Z,100688.34
2019-04-27T06:22:31.584Z,100687.44
2019-04-27T06:25:01.326Z,100687.36
2019-04-27T06:27:31.164Z,100682.13
2019-04-27T06:30:04.716Z,100680.22
2019-04-27T06:32:32.678Z,100676.67
2019-04-27T06:35:02.234Z,100675.20
2019-04-27T06:37:31.857Z,100680.22
2019-04-27T06:40:01.734Z,100684.28
2019-04-27T06:42:31.750Z,100683.01
2019-04-27T06:45:01.299Z,100682.80
2019-04-27T06:47:31.075Z,100682.21
2019-04-27T06:50:00.661Z,100679.95
2019-04-27T06:52:30.733Z,100673.58
2019-04-27T06:55:00.691Z,100679.62
2019-04-27T06:57:30.915Z,100688.17
2019-04-27T07:00:00.552Z,100679.78
2019-04-27T07:02:30.573Z,100685.58
2019-04-27T07:05:00.713Z,100672.60
2019-04-27T07:07:30.756Z,100672.66
2019-04-27T07:10:00.552Z,100670.03
2019-04-27T07:12:30.462Z,100667.17
2019-04-27T07:15:00.740Z,100670.77
2019-04-27T07:17:31.318Z,100661.67
2019-04-27T07:20:01.249Z,100662.39
2019-04-27T07:22:30.843Z,100667.02
2019-04-27T07:25:00.568Z,100668.41
2019-04-27T07:27:30.562Z,100672.39
2019-04-27T07:30:01.717Z,100672.84
2019-04-27T07:32:31.829Z,100672.57
2019-04-27T07:35:01.438Z,100682.08
2019-04-27T07:37:31.201Z,100680.66
2019-04-27T07:40:00.905Z,100676.34
2019-04-27T07:42:32.255Z,100670.59
2019-04-27T07:45:11.379Z,100603.25
2019-04-27T07:47:44.576Z,100678.97
2019-04-27T07:50:14.573Z,100677.80
2019-04-27T07:52:44.707Z,100684.05
2019-04-27T07:55:14.252Z,100678.61
2019-04-27T07:57:43.873Z,100687.06
2019-04-27T08:00:14.789Z,100686.38
2019-04-27T08:02:44.730Z,100691.42
2019-04-27T08:05:14.822Z,100688.25
2019-04-27T08:07:44.430Z,100684.48
2019-04-27T08:10:14.740Z,100683.81
2019-04-27T08:12:47.615Z,100689.91
2019-04-27T08:15:18.905Z,100693.81
2019-04-27T08:17:49.219Z,100697.38
2019-04-27T08:20:21.116Z,100695.50
2019-04-27T08:22:50.646Z,100695.41
2019-04-27T08:25:22.378Z,100697.55
2019-04-27T08:28:00.286Z,100697.68
2019-04-27T08:30:51.742Z,100694.27
2019-04-27T08:33:21.485Z,100688.37
2019-04-27T08:35:51.045Z,100691.66
2019-04-27T08:38:20.812Z,100690.86
2019-04-27T08:40:50.362Z,100691.03
2019-04-27T08:43:20.023Z,100692.09
2019-04-27T08:45:50.162Z,100699.37
2019-04-27T08:48:33.342Z,100702.23
2019-04-27T08:50:51.367Z,100701.09
2019-04-27T08:53:21.072Z,100700.04
2019-04-27T08:55:52.755Z,100712.30
2019-04-27T08:58:22.363Z,100709.30
2019-04-27T09:00:52.228Z,100719.97
2019-04-27T09:03:22.141Z,100716.37
2019-04-27T09:05:52.169Z,100716.48
2019-04-27T09:08:44.053Z,100717.97
2019-04-27T09:11:24.428Z,100730.97
2019-04-27T09:14:09.985Z,100741.75
2019-04-27T09:16:59.556Z,100745.61
2019-04-27T09:19:29.133Z,100748.30
2019-04-27T09:22:13.443Z,100755.75
2019-04-27T09:24:36.655Z,100744.45
2019-04-27T09:27:09.585Z,100741.73
2019-04-27T09:29:39.711Z,100733.72
2019-04-27T09:32:09.533Z,100728.19
2019-04-27T09:34:39.407Z,100730.38
2019-04-27T09:37:09.197Z,100738.66
2019-04-27T09:39:39.318Z,100744.45
2019-04-27T09:42:09.334Z,100750.86
2019-04-27T09:44:39.193Z,100759.14
2019-04-27T09:47:09.598Z,100761.23
2019-04-27T09:49:39.163Z,100763.31
2019-04-27T09:52:08.880Z,100763.53
2019-04-27T09:54:38.689Z,100759.89
2019-04-27T09:57:08.657Z,100765.81
2019-04-27T09:59:39.766Z,100776.30
2019-04-27T10:02:10.122Z,100780.17
2019-04-27T10:04:39.706Z,100783.31
2019-04-27T10:07:10.673Z,100790.92
2019-04-27T10:09:40.438Z,100796.09
2019-04-27T10:12:10.273Z,100797.90
2019-04-27T10:14:40.246Z,100801.03
2019-04-27T10:17:09.987Z,100806.68
2019-04-27T10:19:39.734Z,100795.16
2019-04-27T10:22:09.618Z,100807.55
2019-04-27T10:24:39.363Z,100814.81
2019-04-27T10:27:09.606Z,100806.14
2019-04-27T10:29:39.328Z,100815.69
2019-04-27T10:32:10.003Z,100812.86
2019-04-27T10:34:41.647Z,100820.27
2019-04-27T10:37:11.553Z,100827.25
2019-04-27T10:39:41.102Z,100850.33
2019-04-27T10:42:11.060Z,100849.56
2019-04-27T10:44:40.751Z,100841.63
2019-04-27T10:47:11.093Z,100849.53
2019-04-27T10:49:40.813Z,100846.08
2019-04-27T10:52:11.831Z,100834.42
2019-04-27T10:54:41.440Z,100844.88
2019-04-27T10:57:11.336Z,100855.16
2019-04-27T10:59:40.950Z,100843.23
2019-04-27T11:02:11.065Z,100844.66
2019-04-27T11:04:56.626Z,100844.07
2019-04-27T11:07:30.317Z,100831.55
2019-04-27T11:10:03.040Z,100839.09
2019-04-27T11:12:33.295Z,100832.12
2019-04-27T11:15:03.558Z,100812.34
2019-04-27T11:17:37.053Z,100803.09
2019-04-27T11:20:07.478Z,100797.03
2019-04-27T11:22:37.313Z,100799.20
2019-04-27T11:25:08.338Z,100800.08
2019-04-27T11:27:38.977Z,100806.70
2019-04-27T11:30:09.460Z,100809.58
2019-04-27T11:32:43.721Z,100802.54
2019-04-27T11:35:39.343Z,100798.14
2019-04-27T11:38:08.458Z,100807.88
2019-04-27T11:40:38.441Z,100792.45
2019-04-27T11:43:10.345Z,100770.86
2019-04-27T11:45:40.095Z,100750.55
2019-04-27T11:48:10.136Z,100760.35
2019-04-27T11:50:39.989Z,100762.19
2019-04-27T11:53:19.815Z,100790.00
2019-04-27T11:55:41.486Z,100803.52
2019-04-27T11:58:11.548Z,100821.01
2019-04-27T12:00:41.377Z,100823.23
2019-04-27T12:03:11.916Z,100836.73
2019-04-27T12:05:41.639Z,100838.25
2019-04-27T12:08:11.590Z,100865.50
2019-04-27T12:10:41.578Z,100865.39
2019-04-27T12:13:11.463Z,100865.50
2019-04-27T12:15:41.296Z,100876.09
2019-04-27T12:18:11.373Z,100872.09
2019-04-27T12:20:41.265Z,100869.45
2019-04-27T12:23:11.005Z,100858.33
2019-04-27T12:25:41.361Z,100868.87
2019-04-27T12:28:20.553Z,100883.02
2019-04-27T12:31:00.350Z,100891.10
2019-04-27T12:33:31.530Z,100899.09
2019-04-27T12:36:01.170Z,100911.40
2019-04-27T12:38:30.800Z,100908.75
2019-04-27T12:41:00.595Z,100895.06
2019-04-27T12:43:30.350Z,100893.79
2019-04-27T12:45:59.920Z,100879.82
2019-04-27T12:48:30.869Z,100877.30
2019-04-27T12:51:00.801Z,100881.69
2019-04-27T12:53:48.616Z,100891.39
2019-04-27T12:56:29.956Z,100900.16
2019-04-27T12:59:05.388Z,100907.97
2019-04-27T13:01:36.104Z,100898.34
2019-04-27T13:04:06.210Z,100882.75
2019-04-27T13:06:35.903Z,100884.37
2019-04-27T13:09:07.735Z,100865.16
2019-04-27T13:11:37.359Z,100859.05
2019-04-27T13:14:07.311Z,100855.52
2019-04-27T13:16:37.798Z,100862.95
2019-04-27T13:19:08.929Z,100871.80
2019-04-27T13:21:39.529Z,100876.61
2019-04-27T13:24:09.770Z,100879.29
2019-04-27T13:26:39.657Z,100881.95
2019-04-27T13:29:09.322Z,100890.24
2019-04-27T13:31:39.332Z,100897.70
2019-04-27T13:34:09.379Z,100894.64
2019-04-27T13:36:39.705Z,100882.33
2019-04-27T13:39:09.683Z,100879.16
2019-04-27T13:41:39.396Z,100875.20
2019-04-27T13:44:09.001Z,100877.86
2019-04-27T13:46:56.347Z,100871.71
2019-04-27T13:49:51.136Z,100874.84
2019-04-27T13:52:23.284Z,100870.44
2019-04-27T13:54:52.959Z,100874.39
2019-04-27T13:57:22.804Z,100867.84
2019-04-27T13:59:52.563Z,100874.84
2019-04-27T14:02:24.198Z,100881.89
2019-04-27T14:04:54.510Z,100901.19
2019-04-27T14:07:26.618Z,100903.88
2019-04-27T14:09:56.327Z,100904.78
2019-04-27T14:12:25.880Z,100906.50
2019-04-27T14:14:55.637Z,100906.48
2019-04-27T14:17:25.281Z,100897.70
2019-04-27T14:19:55.608Z,100895.08
2019-04-27T14:22:25.455Z,100888.12
2019-04-27T14:24:55.110Z,100892.97
2019-04-27T14:27:31.064Z,100900.33
2019-04-27T14:30:00.829Z,100903.83
2019-04-27T14:32:30.444Z,100907.38
2019-04-27T14:35:00.298Z,100906.52
2019-04-27T14:37:30.383Z,100903.83
2019-04-27T14:40:00.220Z,100906.56
2019-04-27T14:42:29.787Z,100911.78
2019-04-27T14:44:59.491Z,100916.64
2019-04-27T14:47:29.572Z,100924.05
2019-04-27T14:49:59.463Z,100924.45
2019-04-27T14:52:29.306Z,100921.91
2019-04-27T14:54:59.209Z,100927.57
2019-04-27T14:57:29.236Z,100925.80
2019-04-27T15:00:00.202Z,100920.53
2019-04-27T15:02:30.780Z,100923.16
2019-04-27T15:05:00.466Z,100923.16
2019-04-27T15:07:30.529Z,100914.36
2019-04-27T15:10:00.400Z,100921.39
2019-04-27T15:12:32.354Z,100925.36
2019-04-27T15:15:01.813Z,100931.50
2019-04-27T15:17:31.630Z,100936.33
2019-04-27T15:20:06.601Z,100939.03
2019-04-27T15:22:36.263Z,100935.49
2019-04-27T15:25:12.331Z,100934.22
2019-04-27T15:27:43.097Z,100933.77
2019-04-27T15:30:18.872Z,100928.45
2019-04-27T15:33:22.889Z,100931.13
2019-04-27T15:36:00.094Z,100939.89
2019-04-27T15:38:33.571Z,100942.50
2019-04-27T15:41:13.803Z,100941.59
2019-04-27T15:43:44.163Z,100949.11
2019-04-27T15:46:14.200Z,100946.89
2019-04-27T15:48:48.368Z,100950.44
2019-04-27T15:51:20.991Z,100954.34
2019-04-27T15:53:52.857Z,100961.81
2019-04-27T15:56:22.120Z,100957.41
2019-04-27T15:58:51.785Z,100960.89
2019-04-27T16:01:22.635Z,100958.24
2019-04-27T16:03:52.488Z,100957.87
2019-04-27T16:06:22.339Z,100965.34
2019-04-27T16:08:52.691Z,100961.35
2019-04-27T16:11:22.505Z,100962.72
2019-04-27T16:13:52.917Z,100963.14
2019-04-27T16:16:24.602Z,100966.22
2019-04-27T16:18:57.871Z,100972.36
2019-04-27T16:21:31.554Z,100975.87
2019-04-27T16:24:03.799Z,100979.41
2019-04-27T16:26:36.127Z,100974.98
2019-04-27T16:29:06.101Z,100981.97
2019-04-27T16:31:36.704Z,100986.41
2019-04-27T16:34:08.312Z,100983.78
2019-04-27T16:36:43.588Z,100978.56
2019-04-27T16:39:11.102Z,100971.56
2019-04-27T16:41:44.506Z,100979.42
2019-04-27T16:44:15.522Z,100976.73
2019-04-27T16:46:45.755Z,100985.09
2019-04-27T16:49:15.663Z,100986.43
2019-04-27T16:51:49.246Z,100981.19
2019-04-27T16:54:21.357Z,100982.52
2019-04-27T16:56:58.283Z,100978.56
2019-04-27T16:59:42.641Z,100978.56
2019-04-27T17:01:55.310Z,100985.16
2019-04-27T17:04:25.026Z,100990.42
2019-04-27T17:06:55.013Z,100992.19
2019-04-27T17:09:24.894Z,100994.77
2019-04-27T17:11:54.895Z,100995.23
2019-04-27T17:14:35.232Z,100994.79
2019-04-27T17:17:20.905Z,100990.41
2019-04-27T17:19:53.642Z,100985.60
2019-04-27T17:22:24.067Z,100981.25
2019-04-27T17:24:53.858Z,100979.48
2019-04-27T17:27:31.948Z,100981.19
2019-04-27T17:30:02.225Z,100989.53
2019-04-27T17:32:41.746Z,100989.11
2019-04-27T17:35:14.769Z,100998.78
2019-04-27T17:37:42.956Z,100999.23
2019-04-27T17:40:15.513Z,100896.30
2019-04-27T17:42:45.330Z,101000.58
2019-04-27T17:45:15.595Z,100998.82
2019-04-27T17:47:45.546Z,100995.73
2019-04-27T17:50:19.983Z,101002.31
2019-04-27T17:52:55.015Z,101001.86
2019-04-27T17:55:24.302Z,101009.73
2019-04-27T17:58:00.545Z,101018.08
2019-04-27T18:00:32.975Z,101015.45
2019-04-27T18:03:00.655Z,101025.98
2019-04-27T18:05:30.633Z,101027.80
2019-04-27T18:08:00.931Z,101027.34
2019-04-27T18:10:32.020Z,101027.34
2019-04-27T18:13:02.031Z,101028.66
2019-04-27T18:15:32.742Z,101040.92
2019-04-27T18:18:11.616Z,101036.98
2019-04-27T18:20:44.032Z,101051.02
2019-04-27T18:23:18.556Z,101053.19
2019-04-27T18:25:54.076Z,101044.83
2019-04-27T18:28:28.287Z,101040.00
2019-04-27T18:31:16.456Z,101030.34
2019-04-27T18:33:48.121Z,101030.34
2019-04-27T18:36:19.414Z,101045.27
2019-04-27T18:38:50.166Z,101038.70
2019-04-27T18:41:22.441Z,101032.53
2019-04-27T18:43:55.203Z,101031.25
2019-04-27T18:46:28.193Z,101046.16
2019-04-27T18:49:18.169Z,101040.89
2019-04-27T18:52:06.535Z,101027.72
2019-04-27T18:54:41.871Z,101049.70
2019-04-27T18:57:10.796Z,101057.58
2019-04-27T18:59:43.157Z,101058.91
2019-04-27T19:02:12.892Z,101079.12
2019-04-27T19:04:42.828Z,101095.80
2019-04-27T19:07:12.951Z,101112.92
2019-04-27T19:09:43.393Z,101130.92
2019-04-27T19:12:14.237Z,101132.24
2019-04-27T19:14:47.768Z,101111.16
2019-04-27T19:17:19.841Z,101108.52
2019-04-27T19:19:51.138Z,101099.30
2019-04-27T19:22:21.456Z,101084.80
2019-04-27T19:24:51.830Z,101068.55
2019-04-27T19:27:44.128Z,101059.33
2019-04-27T19:30:23.850Z,101061.14
2019-04-27T19:32:55.121Z,101076.49
2019-04-27T19:35:25.956Z,101094.50
2019-04-27T19:37:56.556Z,101102.38
2019-04-27T19:40:26.683Z,101109.41
2019-04-27T19:42:58.727Z,101105.42
2019-04-27T19:45:31.867Z,101105.89
2019-04-27T19:48:02.574Z,101116.88
2019-04-27T19:50:32.838Z,101113.80
2019-04-27T19:53:03.042Z,101127.41
2019-04-27T19:55:38.954Z,101130.50
2019-04-27T19:58:09.365Z,101120.85
2019-04-27T20:01:11.131Z,101108.99
2019-04-27T20:03:38.875Z,101125.70
2019-04-27T20:06:10.432Z,101140.61
2019-04-27T20:08:42.580Z,101038.39
2019-04-27T20:11:12.399Z,101140.59
2019-04-27T20:13:42.386Z,101141.02
2019-04-27T20:16:12.382Z,101149.37
2019-04-27T20:18:43.329Z,101159.02
2019-04-27T20:21:13.316Z,101148.93
2019-04-27T20:23:43.156Z,101126.09
2019-04-27T20:26:12.959Z,101120.83
2019-04-27T20:28:43.479Z,101150.67
2019-04-27T20:31:13.491Z,101152.88
2019-04-27T20:33:43.433Z,101138.39
2019-04-27T20:36:13.152Z,101145.44
2019-04-27T20:38:43.800Z,101157.27
2019-04-27T20:41:13.902Z,101166.50
2019-04-27T20:43:44.228Z,101161.22
2019-04-27T20:46:14.432Z,101164.75
2019-04-27T20:48:44.204Z,101163.00
2019-04-27T20:51:14.399Z,101180.98
2019-04-27T20:53:51.764Z,101213.47
2019-04-27T20:56:21.953Z,101246.84
2019-04-27T20:58:51.870Z,101246.41
2019-04-27T21:01:21.774Z,101219.61
2019-04-27T21:03:55.469Z,101195.48
2019-04-27T21:06:42.625Z,101170.00
2019-04-27T21:09:16.843Z,101173.09
2019-04-27T21:11:49.374Z,101173.53
2019-04-27T21:14:21.720Z,101184.92
2019-04-27T21:16:56.806Z,101182.73
2019-04-27T21:19:26.406Z,101198.12
2019-04-27T21:21:58.683Z,101206.89
2019-04-27T21:24:28.459Z,101198.12
2019-04-27T21:26:59.751Z,101167.38
2019-04-27T21:29:31.175Z,101162.53
2019-04-27T21:32:01.226Z,101146.30
2019-04-27T21:34:31.214Z,101150.69
2019-04-27T21:37:01.142Z,101143.69
2019-04-27T21:39:32.365Z,101152.88
2019-04-27T21:42:03.410Z,101159.03
2019-04-27T21:44:33.893Z,101158.16
2019-04-27T21:47:04.512Z,101148.06
2019-04-27T21:49:37.257Z,101144.53
2019-04-27T21:52:14.626Z,101144.11
2019-04-27T21:54:44.972Z,101162.98
2019-04-27T21:57:15.133Z,101170.46
2019-04-27T21:59:44.895Z,101184.08
2019-04-27T22:02:14.621Z,101177.47
2019-04-27T22:04:44.612Z,101150.69
2019-04-27T22:07:14.451Z,101128.75
2019-04-27T22:09:44.425Z,101111.20
2019-04-27T22:12:14.941Z,101122.17
2019-04-27T22:14:45.711Z,101143.67
2019-04-27T22:17:16.701Z,101143.70
2019-04-27T22:19:46.560Z,101131.41
2019-04-27T22:22:24.128Z,101128.75
2019-04-27T22:25:04.900Z,101135.33
2019-04-27T22:27:35.491Z,101142.78
2019-04-27T22:30:07.576Z,101142.78
2019-04-27T22:32:38.110Z,101155.11
2019-04-27T22:35:08.374Z,101163.88
2019-04-27T22:37:41.351Z,101167.39
2019-04-27T22:40:38.484Z,101175.28
2019-04-27T22:43:41.198Z,101185.83
2019-04-27T22:46:13.839Z,101170.91
2019-04-27T22:48:46.541Z,101180.11
2019-04-27T22:51:17.559Z,101193.72
2019-04-27T22:53:48.002Z,101195.05
2019-04-27T22:56:22.285Z,101192.40
2019-04-27T22:59:03.631Z,101198.09
2019-04-27T23:01:53.828Z,101191.96
2019-04-27T23:04:32.429Z,101184.94
2019-04-27T23:07:03.190Z,101181.44
2019-04-27T23:09:33.774Z,101172.64
2019-04-27T23:12:04.552Z,101174.86
2019-04-27T23:14:41.373Z,101164.77
2019-04-27T23:17:36.073Z,101150.70
2019-04-27T23:20:06.438Z,101155.53
2019-04-27T23:22:36.884Z,101170.88
2019-04-27T23:25:07.039Z,101191.52
2019-04-27T23:27:36.718Z,101191.52
2019-04-27T23:30:07.027Z,101196.36
2019-04-27T23:32:51.321Z,101194.61
2019-04-27T23:35:20.786Z,101202.52
2019-04-27T23:37:50.807Z,101210.83
2019-04-27T23:40:22.054Z,101216.97
2019-04-27T23:42:51.920Z,101216.54
2019-04-27T23:45:26.751Z,101208.20
2019-04-27T23:47:56.633Z,101197.23
2019-04-27T23:50:28.378Z,101192.86
2019-04-27T23:53:05.807Z,101191.98
2019-04-27T23:55:36.116Z,101196.35
2019-04-27T23:58:10.890Z,101190.23
